CheckWX is a tool to help pilots better visualize weather data.  It is not intended as a substitute for an official pre-flight weather briefing.

06:56:23 UTC

KJBR TAF
Jonesboro Municipal Airport
Jonesboro, Arkansas, USA
KJBR 180530Z 1806/1906 20005KT P6SM VCSH SCT040 BKN150 TEMPO 1810/1814 BKN010 FM181700 24007KT P6SM VCTS BKN040CB BKN150 FM182300 VRB05KT P6SM VCSH SCT040 BKN150

Jun-18@
06:00 UTC

Jun-18 @ 06:00 UTC

Jun-18@
17:00 UTC

Jun-18 @ 17:00 UTC

KJBR 180530Z 1806/1906 20005KT P6SM VCSH SCT040 BKN150
Wind
  • 200° at 5 KTS
Cloud Levels
  • Scattered at 4,000' AGL
  • Broken at 15,000' AGL

Jun-18@
10:00 UTC

Jun-18 @ 10:00 UTC

Jun-18@
14:00 UTC

Jun-18 @ 14:00 UTC

TEMPO 1810/1814 BKN010

Temporary

Temporary Changes expected for less than half the time period

Cloud Levels
  • Broken at 1,000' AGL

Jun-18@
17:00 UTC

Jun-18 @ 17:00 UTC

Jun-18@
23:00 UTC

Jun-18 @ 23:00 UTC

FM181700 24007KT P6SM VCTS BKN040CB BKN150

From

From Standard forecast or significant change

Wind
  • 240° at 7 KTS
Conditions
Area Thunderstorm
Cloud Levels
  • Broken at 4,000' AGL
  • Broken at 15,000' AGL

Jun-18@
23:00 UTC

Jun-18 @ 23:00 UTC

Jun-19@
06:00 UTC

Jun-19 @ 06:00 UTC

FM182300 VRB05KT P6SM VCSH SCT040 BKN150

From

From Standard forecast or significant change

Wind
  • Variable at 5 KTS
Cloud Levels
  • Scattered at 4,000' AGL
  • Broken at 15,000' AGL